Terminal Aerodrome Forecast
Issued by NWS St Louis, MO

Home | Current Version | Previous Version | Text Only | Print | Product List | Glossary On
Versions: 1 2 3 4 5 6 7 8 9 10 11 12 13 14 15 16 17 18 19 20 21 22
304
FTUS43 KLSX 241501 AAC
TAFSTL
TAF AMD
KSTL 241501Z 2415/2518 11005KT P6SM FEW250
     FM241600 13007KT P6SM FEW250
     FM250600 17006KT P6SM FEW250=

USA.gov is the U.S. government's official web portal to all federal, state and local government web resources and services.